createdAt,value
2022-11-20T00:14:25.287Z,7.2
2022-11-20T00:29:25.230Z,7.1
2022-11-20T00:44:25.239Z,7
2022-11-20T00:59:25.241Z,7.1
2022-11-20T01:14:25.212Z,7.1
2022-11-20T01:29:25.398Z,7.1
2022-11-20T01:44:25.168Z,6.9
2022-11-20T01:59:25.195Z,6.9
2022-11-20T02:14:25.149Z,6.9
2022-11-20T02:29:25.170Z,6.5
2022-11-20T02:44:25.176Z,6.2
2022-11-20T02:59:25.122Z,5.8
2022-11-20T03:14:25.119Z,5.7
2022-11-20T03:29:25.133Z,5.6
2022-11-20T03:44:25.117Z,5.4
2022-11-20T03:59:25.083Z,5.4
2022-11-20T04:14:25.074Z,5.2
2022-11-20T04:29:25.066Z,5.1
2022-11-20T04:44:25.028Z,5.1
2022-11-20T04:59:25.046Z,5.2
2022-11-20T05:14:25.003Z,5.2
2022-11-20T05:29:25.017Z,5.2
2022-11-20T05:44:24.980Z,5.3
2022-11-20T05:59:25.016Z,5.1
2022-11-20T06:14:24.955Z,5
2022-11-20T06:29:26.800Z,4.9
2022-11-20T06:44:24.914Z,4.8
2022-11-20T06:59:24.929Z,4.9
2022-11-20T07:14:24.910Z,4.9
2022-11-20T07:29:24.903Z,5.1
2022-11-20T07:44:24.882Z,5.5
2022-11-20T07:59:24.858Z,8.2
2022-11-20T08:14:24.846Z,8.9
2022-11-20T08:29:24.978Z,7.8
2022-11-20T08:44:24.819Z,7.3
2022-11-20T08:59:43.961Z,7.3
2022-11-20T09:14:24.825Z,7.4
2022-11-20T09:29:24.794Z,8.1
2022-11-20T09:44:24.768Z,12.4
2022-11-20T09:59:24.748Z,12.3
2022-11-20T10:14:24.730Z,11.5
2022-11-20T10:29:25.001Z,9.9
2022-11-20T10:44:24.684Z,10
2022-11-20T10:59:24.890Z,9.4
2022-11-20T11:14:24.638Z,9.1
2022-11-20T11:29:25.117Z,8.9
2022-11-20T11:44:24.629Z,9.3
2022-11-20T11:59:25.123Z,9.8
2022-11-20T12:14:24.579Z,10
2022-11-20T12:29:24.915Z,10.2
2022-11-20T12:44:24.535Z,10.5
2022-11-20T12:59:25.045Z,10.7
2022-11-20T13:14:24.843Z,10.8
2022-11-20T13:29:24.537Z,11
2022-11-20T13:44:24.903Z,10.9
2022-11-20T13:59:24.482Z,10.7
2022-11-20T14:14:24.970Z,10.8
2022-11-20T14:29:24.455Z,10.5
2022-11-20T14:44:24.869Z,10.2
2022-11-20T14:59:24.414Z,9.9
2022-11-20T15:14:24.823Z,9.7
2022-11-20T15:29:24.382Z,9.4
2022-11-20T15:44:24.638Z,9.3
2022-11-20T15:59:24.347Z,9.1
2022-11-20T16:14:24.566Z,8.9
2022-11-20T16:29:24.300Z,8.6
2022-11-20T16:44:24.553Z,8.5
2022-11-20T16:59:24.278Z,8.5
2022-11-20T17:14:24.501Z,8.4
2022-11-20T17:29:24.249Z,8.5
2022-11-20T17:44:24.502Z,8.4
2022-11-20T17:59:24.208Z,8.3
2022-11-20T18:14:24.559Z,8.1
2022-11-20T18:29:24.330Z,8
2022-11-20T18:44:24.531Z,7.6
2022-11-20T18:59:24.130Z,7.2
2022-11-20T19:14:24.107Z,7
2022-11-20T19:29:24.452Z,7
2022-11-20T19:44:24.064Z,6.9
2022-11-20T19:59:24.369Z,7
2022-11-20T20:14:24.034Z,6.8
2022-11-20T20:29:24.316Z,6.6
2022-11-20T20:44:24.001Z,6.6
2022-11-20T20:59:24.314Z,6.5
2022-11-20T21:14:24.354Z,6.5
2022-11-20T21:29:23.975Z,6.5
2022-11-20T21:44:31.954Z,6.4
2022-11-20T21:59:23.947Z,6.3
2022-11-20T22:14:24.825Z,6.1
2022-11-20T22:29:23.915Z,6
2022-11-20T22:44:24.312Z,5.9
2022-11-20T22:59:23.905Z,5.8
2022-11-20T23:14:27.712Z,5.7
2022-11-20T23:29:23.929Z,5.6
2022-11-20T23:44:23.874Z,5.6
2022-11-20T23:59:23.871Z,5.5
